createdAt,value
2019-01-09T00:00:13.897Z,1.37
2019-01-09T00:02:43.788Z,1.23
2019-01-09T00:05:13.758Z,1.00
2019-01-09T00:07:44.071Z,1.30
2019-01-09T00:10:13.894Z,1.50
2019-01-09T00:12:43.921Z,1.60
2019-01-09T00:15:13.803Z,1.87
2019-01-09T00:17:44.316Z,1.60
2019-01-09T00:20:14.587Z,1.90
2019-01-09T00:22:44.549Z,2.27
2019-01-09T00:25:14.474Z,2.30
2019-01-09T00:27:44.699Z,2.20
2019-01-09T00:30:15.160Z,2.33
2019-01-09T00:32:45.012Z,2.50
2019-01-09T00:35:15.038Z,2.00
2019-01-09T00:37:45.103Z,2.10
2019-01-09T00:40:14.934Z,2.70
2019-01-09T00:42:44.910Z,1.97
2019-01-09T00:45:15.223Z,1.67
2019-01-09T00:47:45.456Z,1.83
2019-01-09T00:50:15.401Z,1.37
2019-01-09T00:52:45.395Z,1.17
2019-01-09T00:55:15.573Z,1.57
2019-01-09T00:57:46.164Z,1.30
2019-01-09T01:00:18.272Z,1.40
2019-01-09T01:03:34.733Z,1.43
2019-01-09T01:07:04.076Z,1.40
2019-01-09T01:10:23.697Z,1.40
2019-01-09T01:13:47.511Z,1.90
2019-01-09T01:17:11.872Z,1.53
2019-01-09T01:20:34.484Z,1.97
2019-01-09T01:23:53.332Z,2.03
2019-01-09T01:26:35.846Z,2.13
2019-01-09T01:29:44.365Z,2.57
2019-01-09T01:33:03.319Z,1.70
2019-01-09T01:36:28.679Z,2.87
2019-01-09T01:39:31.622Z,2.17
2019-01-09T01:42:59.254Z,1.90
2019-01-09T01:46:11.992Z,1.43
2019-01-09T01:49:24.548Z,1.90
2019-01-09T01:52:52.440Z,2.00
2019-01-09T01:56:20.530Z,1.63
2019-01-09T01:59:40.859Z,1.60
2019-01-09T02:03:08.709Z,1.70
2019-01-09T02:06:36.365Z,2.13
2019-01-09T02:09:52.854Z,1.90
2019-01-09T02:13:20.746Z,2.23
2019-01-09T02:16:48.628Z,2.50
2019-01-09T02:19:59.913Z,2.13
2019-01-09T02:23:16.922Z,2.07
2019-01-09T02:26:30.534Z,2.70
2019-01-09T02:29:37.703Z,2.30
2019-01-09T02:32:46.093Z,2.20
2019-01-09T02:35:28.130Z,1.90
2019-01-09T02:38:17.252Z,2.00
2019-01-09T02:41:06.339Z,2.03
2019-01-09T02:43:55.672Z,2.50
2019-01-09T02:46:44.750Z,2.30
2019-01-09T02:49:33.860Z,1.73
2019-01-09T02:52:22.951Z,2.53
2019-01-09T02:55:12.080Z,3.33
2019-01-09T02:58:01.194Z,3.30
2019-01-09T03:01:09.834Z,2.33
2019-01-09T03:03:58.919Z,2.27
2019-01-09T03:06:48.067Z,2.50
2019-01-09T03:09:37.142Z,2.40
2019-01-09T03:12:26.306Z,4.90
2019-01-09T03:15:16.044Z,2.43
2019-01-09T03:18:05.425Z,2.13
2019-01-09T03:20:54.811Z,2.13
2019-01-09T03:23:45.632Z,2.87
2019-01-09T03:26:34.739Z,3.40
2019-01-09T03:29:23.829Z,3.10
2019-01-09T03:32:13.177Z,3.57
2019-01-09T03:34:54.697Z,2.80
2019-01-09T03:37:43.865Z,3.30
2019-01-09T03:40:33.193Z,4.03
2019-01-09T03:43:22.715Z,3.50
2019-01-09T03:46:12.478Z,3.37
2019-01-09T03:49:01.554Z,3.03
2019-01-09T03:51:50.805Z,3.17
2019-01-09T03:54:40.129Z,2.93
2019-01-09T03:57:29.493Z,2.90
2019-01-09T04:00:18.588Z,2.93
2019-01-09T04:03:07.975Z,2.63
2019-01-09T04:05:57.053Z,2.30
2019-01-09T04:08:46.433Z,2.63
2019-01-09T04:11:36.115Z,2.63
2019-01-09T04:14:25.244Z,2.60
2019-01-09T04:17:14.347Z,3.67
2019-01-09T04:20:03.799Z,2.63
2019-01-09T04:22:53.259Z,1.67
2019-01-09T04:25:42.669Z,1.67
2019-01-09T04:28:51.262Z,2.27
2019-01-09T04:31:40.967Z,1.90
2019-01-09T04:34:21.507Z,1.60
2019-01-09T04:37:10.839Z,1.77
2019-01-09T04:40:00.366Z,1.70
2019-01-09T04:42:51.816Z,2.00
2019-01-09T04:45:41.549Z,1.90
2019-01-09T04:48:31.213Z,2.00
2019-01-09T04:51:20.329Z,1.50
2019-01-09T04:54:09.770Z,1.60
2019-01-09T04:56:59.187Z,1.67
2019-01-09T04:59:48.919Z,1.40
2019-01-09T05:02:38.030Z,1.70
2019-01-09T05:05:27.457Z,2.57
2019-01-09T05:08:16.806Z,1.10
2019-01-09T05:11:05.905Z,1.10
2019-01-09T05:13:55.263Z,0.97
2019-01-09T05:16:44.363Z,1.40
2019-01-09T05:19:33.832Z,1.20
2019-01-09T05:22:22.933Z,0.90
2019-01-09T05:25:04.874Z,2.10
2019-01-09T05:27:53.969Z,0.60
2019-01-09T05:30:43.075Z,1.03
2019-01-09T05:33:32.463Z,1.07
2019-01-09T05:36:14.408Z,0.80
2019-01-09T05:42:13.685Z,1.00
2019-01-09T05:45:02.771Z,1.70
2019-01-09T05:47:51.885Z,0.83
2019-01-09T05:50:41.009Z,0.90
2019-01-09T05:53:30.774Z,1.27
2019-01-09T05:56:19.846Z,1.03
2019-01-09T05:59:08.931Z,0.90
2019-01-09T06:01:58.018Z,1.10
2019-01-09T06:04:47.646Z,1.03
2019-01-09T06:07:37.065Z,1.03
2019-01-09T06:10:26.709Z,0.90
2019-01-09T06:13:15.819Z,1.50
2019-01-09T06:16:05.179Z,1.73
2019-01-09T06:18:55.301Z,1.00
2019-01-09T06:21:44.646Z,0.90
2019-01-09T06:24:34.043Z,0.73
2019-01-09T06:27:23.368Z,0.80
2019-01-09T06:30:12.492Z,1.13
2019-01-09T06:33:01.986Z,1.50
2019-01-09T06:35:44.356Z,1.30
2019-01-09T06:38:33.775Z,1.17
2019-01-09T06:41:23.193Z,1.10
2019-01-09T06:47:27.258Z,1.93
2019-01-09T06:50:19.259Z,1.20
2019-01-09T06:53:08.638Z,1.57
2019-01-09T06:55:58.033Z,0.93
2019-01-09T06:58:47.259Z,0.87
2019-01-09T07:01:36.665Z,1.20
2019-01-09T07:04:26.393Z,1.43
2019-01-09T07:07:15.800Z,0.90
2019-01-09T07:10:05.502Z,1.40
2019-01-09T07:13:14.133Z,0.90
2019-01-09T07:16:03.575Z,1.40
2019-01-09T07:18:53.317Z,1.23
2019-01-09T07:22:01.653Z,1.03
2019-01-09T07:24:51.065Z,1.03
2019-01-09T07:27:40.716Z,1.47
2019-01-09T07:30:29.821Z,1.30
2019-01-09T07:33:19.175Z,0.80
2019-01-09T07:36:01.492Z,0.93
2019-01-09T07:38:51.239Z,1.37
2019-01-09T07:41:41.183Z,0.80
2019-01-09T07:44:30.703Z,1.10
2019-01-09T07:47:19.776Z,0.90
2019-01-09T07:49:49.646Z,0.70
2019-01-09T07:52:20.201Z,2.73
2019-01-09T07:54:50.095Z,1.23
2019-01-09T07:57:20.248Z,1.20
2019-01-09T07:59:50.139Z,0.80
2019-01-09T08:02:19.985Z,0.90
2019-01-09T08:04:50.186Z,1.27
2019-01-09T08:07:20.315Z,1.67
2019-01-09T08:09:50.842Z,1.20
2019-01-09T08:12:21.273Z,1.40
2019-01-09T08:14:51.387Z,1.27
2019-01-09T08:17:21.284Z,1.40
2019-01-09T08:19:51.760Z,1.33
2019-01-09T08:22:21.949Z,0.93
2019-01-09T08:24:52.064Z,1.50
2019-01-09T08:27:23.255Z,1.30
2019-01-09T08:29:53.415Z,1.27
2019-01-09T08:32:23.275Z,2.27
2019-01-09T08:34:53.149Z,1.27
2019-01-09T08:37:23.287Z,1.80
2019-01-09T08:39:54.994Z,1.93
2019-01-09T08:42:25.202Z,2.00
2019-01-09T08:44:55.896Z,1.33
2019-01-09T08:47:25.762Z,1.80
2019-01-09T08:49:55.678Z,1.60
2019-01-09T08:52:25.937Z,1.57
2019-01-09T08:54:55.781Z,1.23
2019-01-09T08:57:25.670Z,2.00
2019-01-09T09:00:14.881Z,1.70
2019-01-09T09:02:44.733Z,1.90
2019-01-09T09:09:26.293Z,1.77
2019-01-09T09:12:15.467Z,1.30
2019-01-09T09:15:06.057Z,1.30
2019-01-09T09:17:55.400Z,1.50
2019-01-09T09:20:44.790Z,1.30
2019-01-09T09:23:34.123Z,2.20
2019-01-09T09:26:23.261Z,1.80
2019-01-09T09:32:20.343Z,1.20
2019-01-09T09:38:31.104Z,1.27
2019-01-09T09:41:20.572Z,1.63
2019-01-09T09:44:09.649Z,1.23
2019-01-09T09:46:58.775Z,1.50
2019-01-09T09:49:47.925Z,1.87
2019-01-09T09:52:37.313Z,1.60
2019-01-09T09:55:27.035Z,1.33
2019-01-09T09:58:35.639Z,1.43
2019-01-09T10:01:25.060Z,1.93
2019-01-09T10:04:14.143Z,1.43
2019-01-09T10:07:03.487Z,1.90
2019-01-09T10:09:52.953Z,1.73
2019-01-09T10:12:42.053Z,2.13
2019-01-09T10:15:31.402Z,1.63
2019-01-09T10:18:20.515Z,1.60
2019-01-09T10:21:09.607Z,1.30
2019-01-09T10:23:59.241Z,1.50
2019-01-09T10:26:48.386Z,1.23
2019-01-09T10:29:37.977Z,1.10
2019-01-09T10:32:27.595Z,1.47
2019-01-09T10:35:16.825Z,2.20
2019-01-09T10:37:58.816Z,1.90
2019-01-09T10:40:47.887Z,1.93
2019-01-09T10:43:36.987Z,1.63
2019-01-09T10:46:45.355Z,1.57
2019-01-09T10:49:34.712Z,1.20
2019-01-09T10:52:23.814Z,1.43
2019-01-09T10:55:32.806Z,2.00
2019-01-09T10:58:21.901Z,1.50
2019-01-09T11:01:11.579Z,1.60
2019-01-09T11:04:00.918Z,1.60
2019-01-09T11:06:50.314Z,1.20
2019-01-09T11:09:59.234Z,1.83
2019-01-09T11:12:48.353Z,1.50
2019-01-09T11:15:37.458Z,1.73
2019-01-09T11:18:26.581Z,1.97
2019-01-09T11:21:15.690Z,1.30
2019-01-09T11:24:05.498Z,1.77
2019-01-09T11:26:55.258Z,1.47
2019-01-09T11:29:44.368Z,1.50
2019-01-09T11:32:33.507Z,1.60
2019-01-09T11:35:43.567Z,1.50
2019-01-09T11:38:25.659Z,1.57
2019-01-09T11:41:14.967Z,1.30
2019-01-09T11:44:04.095Z,1.30
2019-01-09T11:46:53.197Z,1.37
2019-01-09T11:49:35.773Z,1.47
2019-01-09T11:52:43.989Z,1.20
2019-01-09T11:55:33.444Z,1.03
2019-01-09T11:58:23.227Z,1.13
2019-01-09T12:01:13.119Z,1.40
2019-01-09T12:04:02.269Z,2.00
2019-01-09T12:06:51.338Z,1.27
2019-01-09T12:09:40.728Z,1.43
2019-01-09T12:12:30.200Z,0.93
2019-01-09T12:15:20.170Z,1.40
2019-01-09T12:18:09.714Z,1.63
2019-01-09T12:20:59.334Z,1.43
2019-01-09T12:23:48.797Z,1.73
2019-01-09T12:26:38.433Z,1.63
2019-01-09T12:29:29.518Z,1.50
2019-01-09T12:32:19.187Z,1.30
2019-01-09T12:35:08.379Z,1.70
2019-01-09T12:37:51.032Z,1.17
2019-01-09T12:40:40.100Z,1.27
2019-01-09T12:46:57.931Z,1.23
2019-01-09T12:49:47.448Z,1.40
2019-01-09T12:52:36.544Z,1.53
2019-01-09T12:55:25.802Z,1.33
2019-01-09T12:58:15.517Z,1.60
2019-01-09T13:01:05.925Z,1.30
2019-01-09T13:04:14.854Z,1.50
2019-01-09T13:07:03.981Z,1.30
2019-01-09T13:10:12.855Z,1.80
2019-01-09T13:13:02.543Z,1.10
2019-01-09T13:15:51.902Z,1.70
2019-01-09T13:18:41.293Z,0.97
2019-01-09T13:21:49.376Z,1.30
2019-01-09T13:24:38.941Z,1.20
2019-01-09T13:27:28.046Z,2.10
2019-01-09T13:30:37.506Z,1.13
2019-01-09T13:33:26.584Z,1.53
2019-01-09T13:36:15.736Z,1.27
2019-01-09T13:38:57.763Z,1.53
2019-01-09T13:41:46.875Z,1.30
2019-01-09T13:44:36.195Z,1.47
2019-01-09T13:47:25.610Z,1.30
2019-01-09T13:50:15.155Z,1.60
2019-01-09T13:53:04.557Z,1.40
2019-01-09T13:55:53.627Z,1.83
2019-01-09T13:58:42.965Z,1.13
2019-01-09T14:01:32.062Z,1.37
2019-01-09T14:04:21.185Z,1.70
2019-01-09T14:07:10.313Z,1.50
2019-01-09T14:09:59.430Z,1.53
2019-01-09T14:12:48.595Z,2.07
2019-01-09T14:15:37.700Z,1.10
2019-01-09T14:18:26.807Z,1.30
2019-01-09T14:21:16.183Z,1.40
2019-01-09T14:24:06.059Z,1.20
2019-01-09T14:29:49.934Z,1.47
2019-01-09T14:32:39.654Z,1.37
2019-01-09T14:35:48.289Z,1.20
2019-01-09T14:38:29.805Z,1.50
2019-01-09T14:41:19.926Z,1.60
2019-01-09T14:44:09.746Z,1.63
2019-01-09T14:46:59.174Z,1.43
2019-01-09T14:49:48.560Z,1.87
2019-01-09T14:52:37.918Z,1.17
2019-01-09T14:55:27.051Z,1.30
2019-01-09T14:58:16.162Z,1.67
2019-01-09T15:01:05.663Z,1.83
2019-01-09T15:03:54.841Z,1.30
2019-01-09T15:06:44.372Z,1.30
2019-01-09T15:09:33.483Z,1.30
2019-01-09T15:12:22.671Z,1.73
2019-01-09T15:15:52.339Z,1.60
2019-01-09T15:18:41.456Z,1.70
2019-01-09T15:21:30.830Z,2.20
2019-01-09T15:24:20.155Z,1.57
2019-01-09T15:27:09.280Z,2.43
2019-01-09T15:29:58.453Z,1.80
2019-01-09T15:32:47.566Z,1.67
2019-01-09T15:35:36.683Z,1.90
2019-01-09T15:38:19.976Z,1.60
2019-01-09T15:41:09.018Z,1.87
2019-01-09T15:43:58.077Z,2.17
2019-01-09T15:46:47.223Z,1.70
2019-01-09T15:49:36.306Z,1.83
2019-01-09T15:52:25.466Z,1.77
2019-01-09T15:55:15.087Z,1.67
2019-01-09T15:58:04.234Z,1.60
2019-01-09T16:00:56.774Z,2.00
2019-01-09T16:03:45.893Z,1.80
2019-01-09T16:06:35.022Z,2.07
2019-01-09T16:09:24.127Z,2.03
2019-01-09T16:12:13.265Z,2.20
2019-01-09T16:15:02.371Z,2.10
2019-01-09T16:17:51.805Z,1.60
2019-01-09T16:20:41.127Z,2.60
2019-01-09T16:23:30.780Z,2.03
2019-01-09T16:26:19.850Z,2.17
2019-01-09T16:29:09.258Z,2.13
2019-01-09T16:31:58.334Z,2.43
2019-01-09T16:34:47.717Z,2.27
2019-01-09T16:37:37.139Z,2.40
2019-01-09T16:40:23.288Z,2.37
2019-01-09T16:43:09.578Z,2.30
2019-01-09T16:45:39.775Z,1.90
2019-01-09T16:48:09.915Z,2.10
2019-01-09T16:50:59.010Z,1.87
2019-01-09T16:53:48.103Z,2.63
2019-01-09T16:56:37.547Z,2.07
2019-01-09T16:59:26.632Z,2.20
2019-01-09T17:02:15.748Z,2.90
2019-01-09T17:05:44.974Z,2.03
2019-01-09T17:08:34.337Z,3.00
2019-01-09T17:11:23.441Z,3.20
2019-01-09T17:14:12.771Z,3.20
2019-01-09T17:17:01.868Z,3.70
2019-01-09T17:19:50.985Z,3.50
2019-01-09T17:22:40.174Z,3.40
2019-01-09T17:25:29.286Z,3.43
2019-01-09T17:28:18.422Z,3.27
2019-01-09T17:31:07.638Z,6.20
2019-01-09T17:33:56.758Z,5.10
2019-01-09T17:36:45.839Z,5.03
2019-01-09T17:39:27.886Z,4.40
2019-01-09T17:42:16.998Z,4.17
2019-01-09T17:45:06.691Z,3.73
2019-01-09T17:47:55.818Z,3.90
2019-01-09T17:50:45.509Z,3.30
2019-01-09T17:53:34.687Z,4.10
2019-01-09T17:56:23.867Z,4.67
2019-01-09T17:58:53.788Z,3.97
2019-01-09T18:01:23.635Z,3.30
2019-01-09T18:03:53.672Z,3.90
2019-01-09T18:06:24.040Z,3.80
2019-01-09T18:08:53.991Z,3.50
2019-01-09T18:11:24.227Z,3.70
2019-01-09T18:13:54.096Z,3.40
2019-01-09T18:16:24.207Z,3.20
2019-01-09T18:18:54.150Z,3.77
2019-01-09T18:21:24.013Z,4.50
2019-01-09T18:23:54.230Z,3.27
2019-01-09T18:26:24.213Z,3.70
2019-01-09T18:28:54.252Z,3.50
2019-01-09T18:32:10.013Z,4.50
2019-01-09T18:35:17.858Z,4.17
2019-01-09T18:38:37.193Z,3.97
2019-01-09T18:42:19.683Z,3.70
2019-01-09T18:45:21.472Z,3.83
2019-01-09T18:48:50.732Z,3.20
2019-01-09T18:52:18.994Z,4.30
2019-01-09T18:54:49.252Z,4.07
2019-01-09T18:57:19.314Z,4.00
2019-01-09T18:59:49.270Z,4.30
2019-01-09T19:02:19.387Z,3.93
2019-01-09T19:04:49.708Z,3.90
2019-01-09T19:07:19.618Z,4.10
2019-01-09T19:09:49.847Z,4.90
2019-01-09T19:12:38.950Z,5.10
2019-01-09T19:15:28.173Z,4.27
2019-01-09T19:18:17.570Z,4.27
2019-01-09T19:21:06.752Z,4.87
2019-01-09T19:23:57.473Z,3.70
2019-01-09T19:26:46.711Z,3.73
2019-01-09T19:29:35.815Z,4.37
2019-01-09T19:32:24.916Z,3.47
2019-01-09T19:35:14.342Z,4.10
2019-01-09T19:38:03.558Z,3.67
2019-01-09T19:40:45.542Z,3.30
2019-01-09T19:43:34.915Z,3.80
2019-01-09T19:46:24.244Z,3.50
2019-01-09T19:49:13.375Z,4.83
2019-01-09T19:52:02.688Z,3.67
2019-01-09T19:54:52.050Z,3.73
2019-01-09T19:57:41.172Z,4.77
2019-01-09T20:00:30.300Z,4.70
2019-01-09T20:03:00.342Z,4.20
2019-01-09T20:05:30.330Z,4.60
2019-01-09T20:08:00.277Z,5.23
2019-01-09T20:10:30.301Z,4.00
2019-01-09T20:13:00.405Z,5.17
2019-01-09T20:15:30.872Z,4.33
2019-01-09T20:18:01.263Z,4.43
2019-01-09T20:20:31.223Z,4.13
2019-01-09T20:23:01.292Z,4.03
2019-01-09T20:25:31.378Z,4.20
2019-01-09T20:28:01.455Z,4.50
2019-01-09T20:30:32.536Z,4.47
2019-01-09T20:33:02.490Z,4.83
2019-01-09T20:35:32.514Z,3.90
2019-01-09T20:38:02.556Z,4.80
2019-01-09T20:40:32.561Z,4.73
2019-01-09T20:43:02.403Z,3.70
2019-01-09T20:45:32.779Z,5.37
2019-01-09T20:48:02.793Z,4.20
2019-01-09T20:50:33.218Z,4.03
2019-01-09T20:53:03.215Z,4.70
2019-01-09T20:55:33.374Z,3.70
2019-01-09T20:58:03.739Z,3.73
2019-01-09T21:00:33.863Z,4.40
2019-01-09T21:03:10.879Z,4.20
2019-01-09T21:05:47.489Z,4.10
2019-01-09T21:08:17.460Z,4.50
2019-01-09T21:10:47.635Z,3.90
2019-01-09T21:13:17.827Z,4.00
2019-01-09T21:15:47.841Z,3.60
2019-01-09T21:18:17.748Z,3.50
2019-01-09T21:20:47.707Z,4.30
2019-01-09T21:23:17.677Z,3.67
2019-01-09T21:25:47.578Z,3.53
2019-01-09T21:28:17.516Z,3.80
2019-01-09T21:30:47.657Z,4.63
2019-01-09T21:33:17.692Z,3.70
2019-01-09T21:35:47.528Z,3.50
2019-01-09T21:38:17.993Z,3.13
2019-01-09T21:40:48.024Z,3.73
2019-01-09T21:43:17.922Z,2.73
2019-01-09T21:45:47.858Z,3.00
2019-01-09T21:48:17.853Z,3.23
2019-01-09T21:50:47.793Z,3.67
2019-01-09T21:53:17.780Z,2.83
2019-01-09T21:55:47.899Z,2.80
2019-01-09T21:58:17.808Z,2.90
2019-01-09T22:00:47.680Z,3.00
2019-01-09T22:03:17.579Z,2.57
2019-01-09T22:05:47.477Z,2.87
2019-01-09T22:08:17.706Z,2.20
2019-01-09T22:10:47.614Z,2.67
2019-01-09T22:13:17.596Z,2.83
2019-01-09T22:15:47.557Z,2.90
2019-01-09T22:18:17.523Z,3.20
2019-01-09T22:20:47.866Z,2.97
2019-01-09T22:23:17.808Z,3.30
2019-01-09T22:25:47.902Z,3.03
2019-01-09T22:28:17.942Z,2.90
2019-01-09T22:30:47.993Z,2.73
2019-01-09T22:33:17.875Z,2.23
2019-01-09T22:35:48.314Z,2.70
2019-01-09T22:38:18.251Z,2.43
2019-01-09T22:40:48.795Z,2.90
2019-01-09T22:43:19.067Z,2.70
2019-01-09T22:45:49.291Z,2.23
2019-01-09T22:48:19.229Z,2.90
2019-01-09T22:50:49.112Z,2.67
2019-01-09T22:53:19.331Z,2.80
2019-01-09T22:55:49.157Z,2.80
2019-01-09T22:58:19.039Z,2.47
2019-01-09T23:01:10.109Z,3.37
2019-01-09T23:03:40.179Z,3.90
2019-01-09T23:06:10.493Z,2.57
2019-01-09T23:08:40.489Z,3.27
2019-01-09T23:11:10.469Z,2.23
2019-01-09T23:13:40.895Z,2.60
2019-01-09T23:16:11.375Z,2.43
2019-01-09T23:18:41.388Z,2.80
2019-01-09T23:21:11.407Z,2.30
2019-01-09T23:23:41.335Z,2.30
2019-01-09T23:26:11.220Z,1.97
2019-01-09T23:28:41.075Z,2.40
2019-01-09T23:31:11.425Z,2.30
2019-01-09T23:33:41.328Z,2.47
2019-01-09T23:36:11.424Z,2.63
2019-01-09T23:38:41.419Z,2.57
2019-01-09T23:41:11.355Z,2.00
2019-01-09T23:43:41.600Z,2.00
2019-01-09T23:46:11.825Z,3.40
2019-01-09T23:48:42.237Z,2.70
2019-01-09T23:51:12.757Z,2.03
2019-01-09T23:53:42.635Z,2.10
2019-01-09T23:56:12.572Z,2.43
2019-01-09T23:59:01.953Z,2.80
